sensor_id;sensor_type;location;lat;lon;timestamp;temperature;humidity
21267;DHT22;10791;53.108;18.326;2023-05-10T00:01:07;9.30;77.60
21267;DHT22;10791;53.108;18.326;2023-05-10T00:06:10;9.20;77.80
21267;DHT22;10791;53.108;18.326;2023-05-10T00:11:13;9.20;78.30
21267;DHT22;10791;53.108;18.326;2023-05-10T00:16:16;9.00;78.90
21267;DHT22;10791;53.108;18.326;2023-05-10T00:21:20;8.90;79.80
21267;DHT22;10791;53.108;18.326;2023-05-10T00:26:23;8.80;80.30
21267;DHT22;10791;53.108;18.326;2023-05-10T00:31:26;8.60;81.10
21267;DHT22;10791;53.108;18.326;2023-05-10T00:36:29;8.50;81.80
21267;DHT22;10791;53.108;18.326;2023-05-10T00:41:32;8.50;82.10
21267;DHT22;10791;53.108;18.326;2023-05-10T00:46:35;8.40;82.50
21267;DHT22;10791;53.108;18.326;2023-05-10T00:51:39;8.30;83.20
21267;DHT22;10791;53.108;18.326;2023-05-10T00:56:42;8.10;84.40
21267;DHT22;10791;53.108;18.326;2023-05-10T01:01:51;8.00;85.00
21267;DHT22;10791;53.108;18.326;2023-05-10T01:06:55;7.70;87.10
21267;DHT22;10791;53.108;18.326;2023-05-10T01:11:58;7.60;87.90
21267;DHT22;10791;53.108;18.326;2023-05-10T01:17:02;7.60;88.10
21267;DHT22;10791;53.108;18.326;2023-05-10T01:38:39;7.30;89.40
21267;DHT22;10791;53.108;18.326;2023-05-10T01:44:18;7.20;90.10
21267;DHT22;10791;53.108;18.326;2023-05-10T01:49:31;7.00;90.60
21267;DHT22;10791;53.108;18.326;2023-05-10T01:54:41;7.00;91.00
21267;DHT22;10791;53.108;18.326;2023-05-10T01:59:48;6.90;91.20
21267;DHT22;10791;53.108;18.326;2023-05-10T02:04:53;6.90;91.40
21267;DHT22;10791;53.108;18.326;2023-05-10T02:09:58;6.90;91.50
21267;DHT22;10791;53.108;18.326;2023-05-10T02:15:03;6.90;91.60
21267;DHT22;10791;53.108;18.326;2023-05-10T02:20:08;6.90;91.70
21267;DHT22;10791;53.108;18.326;2023-05-10T02:25:13;6.90;91.90
21267;DHT22;10791;53.108;18.326;2023-05-10T02:30:17;6.80;92.30
21267;DHT22;10791;53.108;18.326;2023-05-10T02:35:22;6.70;92.60
21267;DHT22;10791;53.108;18.326;2023-05-10T02:40:27;6.70;92.70
21267;DHT22;10791;53.108;18.326;2023-05-10T02:45:31;6.80;92.40
21267;DHT22;10791;53.108;18.326;2023-05-10T02:50:35;6.70;92.40
21267;DHT22;10791;53.108;18.326;2023-05-10T02:55:41;6.60;92.90
21267;DHT22;10791;53.108;18.326;2023-05-10T03:00:45;6.60;93.00
21267;DHT22;10791;53.108;18.326;2023-05-10T03:05:49;6.60;93.00
21267;DHT22;10791;53.108;18.326;2023-05-10T03:11:19;6.50;93.10
21267;DHT22;10791;53.108;18.326;2023-05-10T03:16:35;6.40;93.60
21267;DHT22;10791;53.108;18.326;2023-05-10T03:21:42;6.30;94.10
21267;DHT22;10791;53.108;18.326;2023-05-10T03:26:46;6.30;94.30
21267;DHT22;10791;53.108;18.326;2023-05-10T03:31:50;6.50;94.20
21267;DHT22;10791;53.108;18.326;2023-05-10T03:36:53;6.60;94.00
21267;DHT22;10791;53.108;18.326;2023-05-10T03:41:57;6.80;93.80
21267;DHT22;10791;53.108;18.326;2023-05-10T03:47:00;7.10;93.40
21267;DHT22;10791;53.108;18.326;2023-05-10T03:52:03;7.30;93.00
21267;DHT22;10791;53.108;18.326;2023-05-10T03:57:06;7.50;92.60
21267;DHT22;10791;53.108;18.326;2023-05-10T04:02:09;7.70;91.50
21267;DHT22;10791;53.108;18.326;2023-05-10T04:07:12;8.00;91.30
21267;DHT22;10791;53.108;18.326;2023-05-10T04:12:15;8.20;90.90
21267;DHT22;10791;53.108;18.326;2023-05-10T04:17:19;8.40;90.70
21267;DHT22;10791;53.108;18.326;2023-05-10T04:22:22;8.50;90.10
21267;DHT22;10791;53.108;18.326;2023-05-10T04:27:25;8.70;89.70
21267;DHT22;10791;53.108;18.326;2023-05-10T04:32:28;8.90;88.50
21267;DHT22;10791;53.108;18.326;2023-05-10T04:37:32;9.10;87.90
21267;DHT22;10791;53.108;18.326;2023-05-10T04:42:35;9.20;87.30
21267;DHT22;10791;53.108;18.326;2023-05-10T04:47:38;9.40;86.50
21267;DHT22;10791;53.108;18.326;2023-05-10T04:52:41;9.50;85.70
21267;DHT22;10791;53.108;18.326;2023-05-10T04:57:44;9.70;85.50
21267;DHT22;10791;53.108;18.326;2023-05-10T05:02:47;9.80;84.40
21267;DHT22;10791;53.108;18.326;2023-05-10T05:07:50;10.00;83.80
21267;DHT22;10791;53.108;18.326;2023-05-10T05:12:54;10.10;83.70
21267;DHT22;10791;53.108;18.326;2023-05-10T05:17:57;10.20;83.50
21267;DHT22;10791;53.108;18.326;2023-05-10T05:23:01;10.40;82.60
21267;DHT22;10791;53.108;18.326;2023-05-10T05:28:04;10.60;82.20
21267;DHT22;10791;53.108;18.326;2023-05-10T05:33:07;10.80;81.30
21267;DHT22;10791;53.108;18.326;2023-05-10T05:38:11;11.00;80.40
21267;DHT22;10791;53.108;18.326;2023-05-10T05:43:14;11.20;79.70
21267;DHT22;10791;53.108;18.326;2023-05-10T05:48:17;11.50;78.40
21267;DHT22;10791;53.108;18.326;2023-05-10T05:53:20;11.70;77.30
21267;DHT22;10791;53.108;18.326;2023-05-10T05:58:25;12.00;76.80
21267;DHT22;10791;53.108;18.326;2023-05-10T06:03:28;12.20;74.10
21267;DHT22;10791;53.108;18.326;2023-05-10T06:08:32;12.50;74.40
21267;DHT22;10791;53.108;18.326;2023-05-10T06:13:36;12.80;71.80
21267;DHT22;10791;53.108;18.326;2023-05-10T06:18:39;13.10;70.00
21267;DHT22;10791;53.108;18.326;2023-05-10T06:23:42;13.40;69.30
21267;DHT22;10791;53.108;18.326;2023-05-10T06:28:46;13.60;67.80
21267;DHT22;10791;53.108;18.326;2023-05-10T06:33:49;13.80;66.90
21267;DHT22;10791;53.108;18.326;2023-05-10T06:38:52;14.00;65.70
21267;DHT22;10791;53.108;18.326;2023-05-10T06:43:57;14.30;65.10
21267;DHT22;10791;53.108;18.326;2023-05-10T06:49:00;14.50;63.90
21267;DHT22;10791;53.108;18.326;2023-05-10T06:54:03;14.60;62.70
21267;DHT22;10791;53.108;18.326;2023-05-10T06:59:06;14.80;62.90
21267;DHT22;10791;53.108;18.326;2023-05-10T07:04:10;15.00;62.90
21267;DHT22;10791;53.108;18.326;2023-05-10T07:09:13;15.30;62.00
21267;DHT22;10791;53.108;18.326;2023-05-10T07:14:16;15.50;61.80
21267;DHT22;10791;53.108;18.326;2023-05-10T07:19:19;15.70;59.30
21267;DHT22;10791;53.108;18.326;2023-05-10T07:24:22;15.70;59.80
21267;DHT22;10791;53.108;18.326;2023-05-10T07:29:26;15.90;58.90
21267;DHT22;10791;53.108;18.326;2023-05-10T07:34:29;16.10;58.30
21267;DHT22;10791;53.108;18.326;2023-05-10T07:39:33;16.20;57.60
21267;DHT22;10791;53.108;18.326;2023-05-10T07:44:36;16.20;57.90
21267;DHT22;10791;53.108;18.326;2023-05-10T07:49:39;16.50;56.30
21267;DHT22;10791;53.108;18.326;2023-05-10T07:54:42;16.60;57.50
21267;DHT22;10791;53.108;18.326;2023-05-10T07:59:45;16.80;56.60
21267;DHT22;10791;53.108;18.326;2023-05-10T08:04:49;17.00;55.70
21267;DHT22;10791;53.108;18.326;2023-05-10T08:09:52;17.00;55.20
21267;DHT22;10791;53.108;18.326;2023-05-10T08:14:55;17.20;55.00
21267;DHT22;10791;53.108;18.326;2023-05-10T08:20:01;17.40;54.70
21267;DHT22;10791;53.108;18.326;2023-05-10T08:25:05;17.60;54.40
21267;DHT22;10791;53.108;18.326;2023-05-10T08:30:10;17.70;54.40
21267;DHT22;10791;53.108;18.326;2023-05-10T08:35:15;17.70;54.80
21267;DHT22;10791;53.108;18.326;2023-05-10T08:40:19;17.80;54.50
21267;DHT22;10791;53.108;18.326;2023-05-10T08:45:27;18.00;52.50
21267;DHT22;10791;53.108;18.326;2023-05-10T08:50:36;18.10;53.20
21267;DHT22;10791;53.108;18.326;2023-05-10T08:55:40;18.30;54.10
21267;DHT22;10791;53.108;18.326;2023-05-10T09:00:45;18.50;52.60
21267;DHT22;10791;53.108;18.326;2023-05-10T09:05:49;18.40;51.50
21267;DHT22;10791;53.108;18.326;2023-05-10T09:10:54;18.40;52.60
21267;DHT22;10791;53.108;18.326;2023-05-10T09:15:57;18.60;52.10
21267;DHT22;10791;53.108;18.326;2023-05-10T09:21:11;18.70;52.40
21267;DHT22;10791;53.108;18.326;2023-05-10T09:26:15;19.10;52.10
21267;DHT22;10791;53.108;18.326;2023-05-10T09:31:19;19.00;50.80
21267;DHT22;10791;53.108;18.326;2023-05-10T09:36:23;18.90;49.50
21267;DHT22;10791;53.108;18.326;2023-05-10T09:41:27;18.80;48.70
21267;DHT22;10791;53.108;18.326;2023-05-10T09:46:35;19.10;48.70
21267;DHT22;10791;53.108;18.326;2023-05-10T09:51:38;19.00;49.30
21267;DHT22;10791;53.108;18.326;2023-05-10T09:56:42;19.30;50.00
21267;DHT22;10791;53.108;18.326;2023-05-10T10:01:52;19.60;50.00
21267;DHT22;10791;53.108;18.326;2023-05-10T10:07:14;19.70;47.30
21267;DHT22;10791;53.108;18.326;2023-05-10T10:12:17;19.60;47.80
21267;DHT22;10791;53.108;18.326;2023-05-10T10:17:21;19.60;47.30
21267;DHT22;10791;53.108;18.326;2023-05-10T10:22:24;19.60;49.20
21267;DHT22;10791;53.108;18.326;2023-05-10T10:43:49;19.70;48.10
21267;DHT22;10791;53.108;18.326;2023-05-10T10:49:14;20.00;50.00
21267;DHT22;10791;53.108;18.326;2023-05-10T10:54:28;20.30;48.60
21267;DHT22;10791;53.108;18.326;2023-05-10T10:59:31;20.20;48.40
21267;DHT22;10791;53.108;18.326;2023-05-10T11:04:42;20.10;49.70
21267;DHT22;10791;53.108;18.326;2023-05-10T11:09:47;20.30;46.50
21267;DHT22;10791;53.108;18.326;2023-05-10T11:14:50;20.30;49.00
21267;DHT22;10791;53.108;18.326;2023-05-10T11:20:09;20.20;47.70
21267;DHT22;10791;53.108;18.326;2023-05-10T11:25:13;20.40;45.80
21267;DHT22;10791;53.108;18.326;2023-05-10T11:30:16;20.40;47.50
21267;DHT22;10791;53.108;18.326;2023-05-10T11:35:20;20.70;48.40
21267;DHT22;10791;53.108;18.326;2023-05-10T11:40:23;20.70;46.90
21267;DHT22;10791;53.108;18.326;2023-05-10T11:45:27;20.90;46.50
21267;DHT22;10791;53.108;18.326;2023-05-10T11:50:32;20.50;45.70
21267;DHT22;10791;53.108;18.326;2023-05-10T11:55:35;20.30;45.80
21267;DHT22;10791;53.108;18.326;2023-05-10T12:00:39;20.30;48.40
21267;DHT22;10791;53.108;18.326;2023-05-10T12:05:42;20.40;46.30
21267;DHT22;10791;53.108;18.326;2023-05-10T12:10:45;20.50;44.80
21267;DHT22;10791;53.108;18.326;2023-05-10T12:15:50;20.70;47.40
21267;DHT22;10791;53.108;18.326;2023-05-10T12:20:53;20.90;44.90
21267;DHT22;10791;53.108;18.326;2023-05-10T12:26:02;20.80;46.00
21267;DHT22;10791;53.108;18.326;2023-05-10T12:31:07;20.80;44.60
21267;DHT22;10791;53.108;18.326;2023-05-10T12:36:11;20.80;44.10
21267;DHT22;10791;53.108;18.326;2023-05-10T12:41:16;20.70;44.00
21267;DHT22;10791;53.108;18.326;2023-05-10T12:46:20;20.80;44.30
21267;DHT22;10791;53.108;18.326;2023-05-10T12:51:26;20.80;45.20
21267;DHT22;10791;53.108;18.326;2023-05-10T12:56:29;20.90;43.60
21267;DHT22;10791;53.108;18.326;2023-05-10T13:01:32;20.80;45.20
21267;DHT22;10791;53.108;18.326;2023-05-10T13:06:35;21.10;45.10
21267;DHT22;10791;53.108;18.326;2023-05-10T13:11:38;21.30;44.30
21267;DHT22;10791;53.108;18.326;2023-05-10T13:16:41;21.50;44.60
21267;DHT22;10791;53.108;18.326;2023-05-10T13:21:44;21.30;43.70
21267;DHT22;10791;53.108;18.326;2023-05-10T13:26:47;21.20;43.80
21267;DHT22;10791;53.108;18.326;2023-05-10T13:31:51;21.00;41.60
21267;DHT22;10791;53.108;18.326;2023-05-10T13:36:54;21.00;43.30
21267;DHT22;10791;53.108;18.326;2023-05-10T13:41:58;21.20;44.40
21267;DHT22;10791;53.108;18.326;2023-05-10T13:47:01;21.30;44.70
21267;DHT22;10791;53.108;18.326;2023-05-10T13:52:05;21.50;44.20
21267;DHT22;10791;53.108;18.326;2023-05-10T13:57:12;21.50;42.50
21267;DHT22;10791;53.108;18.326;2023-05-10T14:02:16;21.40;45.50
21267;DHT22;10791;53.108;18.326;2023-05-10T14:07:19;21.50;43.80
21267;DHT22;10791;53.108;18.326;2023-05-10T14:12:22;21.20;44.70
21267;DHT22;10791;53.108;18.326;2023-05-10T14:17:25;21.20;43.10
21267;DHT22;10791;53.108;18.326;2023-05-10T14:22:28;21.20;42.60
21267;DHT22;10791;53.108;18.326;2023-05-10T14:27:31;21.20;44.80
21267;DHT22;10791;53.108;18.326;2023-05-10T14:32:37;21.40;44.10
21267;DHT22;10791;53.108;18.326;2023-05-10T14:37:40;21.70;43.30
21267;DHT22;10791;53.108;18.326;2023-05-10T14:42:43;22.20;43.20
21267;DHT22;10791;53.108;18.326;2023-05-10T14:47:46;23.20;42.20
21267;DHT22;10791;53.108;18.326;2023-05-10T14:52:49;24.00;41.10
21267;DHT22;10791;53.108;18.326;2023-05-10T14:57:52;24.20;39.70
21267;DHT22;10791;53.108;18.326;2023-05-10T15:02:55;24.60;41.30
21267;DHT22;10791;53.108;18.326;2023-05-10T15:07:59;24.50;38.70
21267;DHT22;10791;53.108;18.326;2023-05-10T15:13:03;24.60;39.60
21267;DHT22;10791;53.108;18.326;2023-05-10T15:18:06;25.10;38.30
21267;DHT22;10791;53.108;18.326;2023-05-10T15:23:10;25.20;37.90
21267;DHT22;10791;53.108;18.326;2023-05-10T15:28:13;25.50;38.40
21267;DHT22;10791;53.108;18.326;2023-05-10T15:33:16;25.10;38.50
21267;DHT22;10791;53.108;18.326;2023-05-10T15:38:19;24.30;39.20
21267;DHT22;10791;53.108;18.326;2023-05-10T15:43:24;24.80;39.40
21267;DHT22;10791;53.108;18.326;2023-05-10T15:48:27;24.90;39.90
21267;DHT22;10791;53.108;18.326;2023-05-10T15:53:30;25.30;38.80
21267;DHT22;10791;53.108;18.326;2023-05-10T15:58:33;24.80;39.10
21267;DHT22;10791;53.108;18.326;2023-05-10T16:03:37;24.00;39.90
21267;DHT22;10791;53.108;18.326;2023-05-10T16:08:41;23.10;40.80
21267;DHT22;10791;53.108;18.326;2023-05-10T16:13:44;22.90;42.00
21267;DHT22;10791;53.108;18.326;2023-05-10T16:18:47;22.60;42.20
21267;DHT22;10791;53.108;18.326;2023-05-10T16:23:51;22.60;40.80
21267;DHT22;10791;53.108;18.326;2023-05-10T16:28:56;22.60;41.60
21267;DHT22;10791;53.108;18.326;2023-05-10T16:33:59;22.50;42.60
21267;DHT22;10791;53.108;18.326;2023-05-10T16:39:03;22.40;42.50
21267;DHT22;10791;53.108;18.326;2023-05-10T16:44:06;22.30;42.10
21267;DHT22;10791;53.108;18.326;2023-05-10T16:49:09;22.00;41.80
21267;DHT22;10791;53.108;18.326;2023-05-10T16:54:14;21.50;43.00
21267;DHT22;10791;53.108;18.326;2023-05-10T16:59:19;21.40;42.10
21267;DHT22;10791;53.108;18.326;2023-05-10T17:04:22;21.30;42.50
21267;DHT22;10791;53.108;18.326;2023-05-10T17:09:25;21.20;43.40
21267;DHT22;10791;53.108;18.326;2023-05-10T17:14:28;20.80;43.60
21267;DHT22;10791;53.108;18.326;2023-05-10T17:19:32;20.60;44.30
21267;DHT22;10791;53.108;18.326;2023-05-10T17:24:35;20.50;45.00
21267;DHT22;10791;53.108;18.326;2023-05-10T17:29:38;20.40;44.50
21267;DHT22;10791;53.108;18.326;2023-05-10T17:34:41;20.10;44.60
21267;DHT22;10791;53.108;18.326;2023-05-10T17:39:44;19.60;45.90
21267;DHT22;10791;53.108;18.326;2023-05-10T17:44:48;19.10;46.20
21267;DHT22;10791;53.108;18.326;2023-05-10T17:49:51;18.70;46.80
21267;DHT22;10791;53.108;18.326;2023-05-10T17:54:54;18.30;47.30
21267;DHT22;10791;53.108;18.326;2023-05-10T17:59:58;18.00;48.30
21267;DHT22;10791;53.108;18.326;2023-05-10T18:05:01;17.90;48.60
21267;DHT22;10791;53.108;18.326;2023-05-10T18:10:06;17.60;48.90
21267;DHT22;10791;53.108;18.326;2023-05-10T18:15:09;17.30;49.60
21267;DHT22;10791;53.108;18.326;2023-05-10T18:20:12;17.10;50.50
21267;DHT22;10791;53.108;18.326;2023-05-10T18:25:15;16.90;51.10
21267;DHT22;10791;53.108;18.326;2023-05-10T18:30:19;16.60;51.10
21267;DHT22;10791;53.108;18.326;2023-05-10T18:35:22;16.40;52.00
21267;DHT22;10791;53.108;18.326;2023-05-10T18:40:26;16.10;52.80
21267;DHT22;10791;53.108;18.326;2023-05-10T18:45:29;15.90;53.50
21267;DHT22;10791;53.108;18.326;2023-05-10T18:50:34;15.60;54.10
21267;DHT22;10791;53.108;18.326;2023-05-10T18:55:38;15.50;54.80
21267;DHT22;10791;53.108;18.326;2023-05-10T19:00:42;15.20;55.40
21267;DHT22;10791;53.108;18.326;2023-05-10T19:05:47;14.90;56.50
21267;DHT22;10791;53.108;18.326;2023-05-10T19:10:52;14.70;57.50
21267;DHT22;10791;53.108;18.326;2023-05-10T19:16:05;14.40;58.10
21267;DHT22;10791;53.108;18.326;2023-05-10T19:21:10;14.20;58.80
21267;DHT22;10791;53.108;18.326;2023-05-10T19:26:14;14.10;59.10
21267;DHT22;10791;53.108;18.326;2023-05-10T19:31:20;14.10;59.40
21267;DHT22;10791;53.108;18.326;2023-05-10T19:36:24;14.00;59.80
21267;DHT22;10791;53.108;18.326;2023-05-10T19:41:29;13.90;59.90
21267;DHT22;10791;53.108;18.326;2023-05-10T19:46:35;14.00;60.40
21267;DHT22;10791;53.108;18.326;2023-05-10T19:51:41;13.80;60.60
21267;DHT22;10791;53.108;18.326;2023-05-10T19:56:48;13.80;60.50
21267;DHT22;10791;53.108;18.326;2023-05-10T20:01:55;13.70;60.80
21267;DHT22;10791;53.108;18.326;2023-05-10T20:07:02;13.80;60.40
21267;DHT22;10791;53.108;18.326;2023-05-10T20:12:08;13.70;60.20
21267;DHT22;10791;53.108;18.326;2023-05-10T20:17:12;13.70;59.60
21267;DHT22;10791;53.108;18.326;2023-05-10T20:22:15;13.70;59.60
21267;DHT22;10791;53.108;18.326;2023-05-10T20:27:20;13.70;59.60
21267;DHT22;10791;53.108;18.326;2023-05-10T20:32:24;13.80;59.20
21267;DHT22;10791;53.108;18.326;2023-05-10T20:37:29;13.70;59.20
21267;DHT22;10791;53.108;18.326;2023-05-10T20:42:33;13.70;59.20
21267;DHT22;10791;53.108;18.326;2023-05-10T20:47:37;13.70;58.90
21267;DHT22;10791;53.108;18.326;2023-05-10T20:52:40;13.70;58.80
21267;DHT22;10791;53.108;18.326;2023-05-10T20:57:44;13.70;59.00
21267;DHT22;10791;53.108;18.326;2023-05-10T21:02:49;13.60;58.90
21267;DHT22;10791;53.108;18.326;2023-05-10T21:07:53;13.60;59.10
21267;DHT22;10791;53.108;18.326;2023-05-10T21:12:56;13.50;59.30
21267;DHT22;10791;53.108;18.326;2023-05-10T21:17:59;13.40;59.50
21267;DHT22;10791;53.108;18.326;2023-05-10T21:23:04;13.30;60.10
21267;DHT22;10791;53.108;18.326;2023-05-10T21:28:07;13.20;60.70
21267;DHT22;10791;53.108;18.326;2023-05-10T21:33:10;13.10;61.20
21267;DHT22;10791;53.108;18.326;2023-05-10T21:38:14;12.90;61.60
21267;DHT22;10791;53.108;18.326;2023-05-10T21:43:18;12.80;61.80
21267;DHT22;10791;53.108;18.326;2023-05-10T21:48:23;12.70;62.10
21267;DHT22;10791;53.108;18.326;2023-05-10T21:53:27;12.60;62.40
21267;DHT22;10791;53.108;18.326;2023-05-10T21:58:30;12.50;62.50
21267;DHT22;10791;53.108;18.326;2023-05-10T22:03:34;12.60;62.50
21267;DHT22;10791;53.108;18.326;2023-05-10T22:08:37;12.50;62.50
21267;DHT22;10791;53.108;18.326;2023-05-10T22:13:40;12.40;62.90
21267;DHT22;10791;53.108;18.326;2023-05-10T22:18:43;12.40;62.90
21267;DHT22;10791;53.108;18.326;2023-05-10T22:23:46;12.30;63.40
21267;DHT22;10791;53.108;18.326;2023-05-10T22:28:49;12.30;63.70
21267;DHT22;10791;53.108;18.326;2023-05-10T22:33:52;12.00;64.10
21267;DHT22;10791;53.108;18.326;2023-05-10T22:38:55;11.90;64.60
21267;DHT22;10791;53.108;18.326;2023-05-10T22:43:58;11.90;65.20
21267;DHT22;10791;53.108;18.326;2023-05-10T22:49:01;11.80;65.90
21267;DHT22;10791;53.108;18.326;2023-05-10T22:54:05;11.60;66.00
21267;DHT22;10791;53.108;18.326;2023-05-10T22:59:09;11.50;66.80
21267;DHT22;10791;53.108;18.326;2023-05-10T23:04:12;11.40;67.10
21267;DHT22;10791;53.108;18.326;2023-05-10T23:09:15;11.20;67.70
21267;DHT22;10791;53.108;18.326;2023-05-10T23:14:18;11.00;68.10
21267;DHT22;10791;53.108;18.326;2023-05-10T23:19:22;11.10;68.20
21267;DHT22;10791;53.108;18.326;2023-05-10T23:24:26;11.00;68.20
21267;DHT22;10791;53.108;18.326;2023-05-10T23:29:29;11.00;68.10
21267;DHT22;10791;53.108;18.326;2023-05-10T23:34:33;11.00;67.80
21267;DHT22;10791;53.108;18.326;2023-05-10T23:39:36;11.10;68.20
21267;DHT22;10791;53.108;18.326;2023-05-10T23:44:39;11.00;68.20
21267;DHT22;10791;53.108;18.326;2023-05-10T23:49:43;10.80;69.00
21267;DHT22;10791;53.108;18.326;2023-05-10T23:54:46;10.70;69.40
21267;DHT22;10791;53.108;18.326;2023-05-10T23:59:49;10.60;69.90
